createdAt,value
2023-04-17T00:00:13.252Z,17.23
2023-04-17T00:02:41.228Z,14.82
2023-04-17T00:05:10.195Z,16.25
2023-04-17T00:07:38.833Z,15.88
2023-04-17T00:10:08.876Z,16.13
2023-04-17T00:12:36.770Z,15.82
2023-04-17T00:15:06.944Z,16.42
2023-04-17T00:17:36.014Z,15.32
2023-04-17T00:20:07.632Z,16.83
2023-04-17T00:22:35.355Z,16.80
2023-04-17T00:25:02.849Z,16.70
2023-04-17T00:27:30.477Z,16.23
2023-04-17T00:29:58.007Z,17.10
2023-04-17T00:32:25.644Z,16.30
2023-04-17T00:34:55.777Z,15.82
2023-04-17T00:37:23.530Z,17.05
2023-04-17T00:39:51.055Z,16.35
2023-04-17T00:42:18.629Z,18.17
2023-04-17T00:44:46.244Z,16.92
2023-04-17T00:47:14.393Z,15.13
2023-04-17T00:49:42.086Z,15.85
2023-04-17T00:52:12.066Z,17.92
2023-04-17T00:54:39.758Z,18.00
2023-04-17T00:57:07.600Z,18.52
2023-04-17T00:59:37.222Z,19.75
2023-04-17T01:02:05.258Z,16.70
2023-04-17T01:04:33.004Z,18.30
2023-04-17T01:07:00.801Z,18.17
2023-04-17T01:09:29.792Z,18.90
2023-04-17T01:12:19.352Z,19.52
2023-04-17T01:14:47.047Z,17.40
2023-04-17T01:17:15.350Z,17.48
2023-04-17T01:19:43.068Z,18.00
2023-04-17T01:22:10.707Z,17.60
2023-04-17T01:24:39.946Z,17.95
2023-04-17T01:27:08.318Z,17.15
2023-04-17T01:29:36.494Z,18.17
2023-04-17T01:32:04.101Z,19.00
2023-04-17T01:34:31.727Z,18.08
2023-04-17T01:36:59.278Z,17.88
2023-04-17T01:39:27.597Z,17.90
2023-04-17T01:41:56.527Z,16.73
2023-04-17T01:44:24.055Z,19.42
2023-04-17T01:46:51.785Z,17.13
2023-04-17T01:49:20.324Z,17.42
2023-04-17T01:51:47.929Z,18.00
2023-04-17T01:54:16.051Z,17.90
2023-04-17T01:56:43.598Z,17.23
2023-04-17T01:59:12.665Z,17.15
2023-04-17T02:01:40.509Z,17.95
2023-04-17T02:04:08.499Z,17.33
2023-04-17T02:06:36.534Z,17.75
2023-04-17T02:09:04.474Z,18.02
2023-04-17T02:11:32.002Z,18.10
2023-04-17T02:13:59.524Z,17.75
2023-04-17T02:16:28.817Z,18.10
2023-04-17T02:18:56.526Z,18.48
2023-04-17T02:21:24.152Z,17.75
2023-04-17T02:23:51.857Z,17.45
2023-04-17T02:26:19.416Z,17.85
2023-04-17T02:28:47.243Z,20.13
2023-04-17T02:31:14.850Z,19.33
2023-04-17T02:33:43.747Z,19.05
2023-04-17T02:36:11.725Z,20.90
2023-04-17T02:38:42.163Z,18.15
2023-04-17T02:41:10.055Z,18.42
2023-04-17T02:43:39.014Z,22.17
2023-04-17T02:46:06.608Z,20.88
2023-04-17T02:48:34.142Z,21.70
2023-04-17T02:51:03.072Z,19.48
2023-04-17T02:53:31.365Z,19.92
2023-04-17T02:55:58.992Z,19.58
2023-04-17T02:58:26.634Z,19.95
2023-04-17T03:01:02.538Z,21.85
2023-04-17T03:03:34.754Z,19.88
2023-04-17T03:06:07.145Z,19.00
2023-04-17T03:08:35.671Z,19.40
2023-04-17T03:11:03.996Z,24.50
2023-04-17T03:13:31.566Z,20.70
2023-04-17T03:16:00.353Z,19.77
2023-04-17T03:18:28.558Z,20.25
2023-04-17T03:20:56.934Z,21.35
2023-04-17T03:23:25.903Z,20.88
2023-04-17T03:25:53.895Z,20.92
2023-04-17T03:28:23.709Z,20.52
2023-04-17T03:30:51.423Z,20.80
2023-04-17T03:33:19.242Z,21.63
2023-04-17T03:35:47.138Z,21.02
2023-04-17T03:38:16.118Z,19.75
2023-04-17T03:40:45.099Z,21.20
2023-04-17T03:43:13.072Z,21.05
2023-04-17T03:45:40.714Z,22.98
2023-04-17T03:48:08.316Z,22.30
2023-04-17T03:50:37.067Z,21.42
2023-04-17T03:53:04.680Z,21.73
2023-04-17T03:55:33.976Z,23.35
2023-04-17T03:58:02.911Z,22.58
2023-04-17T04:00:32.607Z,20.88
2023-04-17T04:03:06.419Z,20.13
2023-04-17T04:05:39.898Z,22.13
2023-04-17T04:08:09.246Z,22.38
2023-04-17T04:10:45.394Z,22.33
2023-04-17T04:13:17.863Z,24.65
2023-04-17T04:15:52.122Z,24.40
2023-04-17T04:18:22.007Z,25.15
2023-04-17T04:20:49.779Z,24.77
2023-04-17T04:23:25.553Z,23.15
2023-04-17T04:25:56.759Z,23.63
2023-04-17T04:28:50.522Z,27.95
2023-04-17T04:31:29.629Z,25.13
2023-04-17T04:33:59.055Z,25.20
2023-04-17T04:36:30.146Z,24.30
2023-04-17T04:39:30.192Z,23.17
2023-04-17T04:42:05.803Z,24.90
2023-04-17T04:44:45.012Z,25.23
2023-04-17T04:47:13.585Z,24.50
2023-04-17T04:49:41.818Z,24.55
2023-04-17T04:52:09.571Z,25.80
2023-04-17T04:54:37.236Z,25.20
2023-04-17T04:57:05.146Z,23.48
2023-04-17T04:59:33.628Z,25.17
2023-04-17T05:02:22.938Z,24.05
2023-04-17T05:04:52.247Z,23.02
2023-04-17T05:07:20.704Z,25.67
2023-04-17T05:09:48.322Z,25.23
2023-04-17T05:12:17.227Z,26.33
2023-04-17T05:14:45.754Z,24.05
2023-04-17T05:17:14.417Z,24.55
2023-04-17T05:19:43.372Z,25.33
2023-04-17T05:22:11.575Z,24.30
2023-04-17T05:24:50.183Z,24.27
2023-04-17T05:27:18.443Z,23.08
2023-04-17T05:29:46.144Z,24.25
2023-04-17T05:32:13.988Z,24.05
2023-04-17T05:34:55.372Z,24.55
2023-04-17T05:37:26.428Z,26.30
2023-04-17T05:39:53.998Z,26.02
2023-04-17T05:42:21.619Z,26.35
2023-04-17T05:44:51.106Z,25.58
2023-04-17T05:47:19.275Z,25.50
2023-04-17T05:49:48.537Z,25.35
2023-04-17T05:52:17.763Z,24.77
2023-04-17T05:54:45.810Z,23.95
2023-04-17T05:57:13.765Z,23.40
2023-04-17T05:59:41.394Z,24.35
2023-04-17T06:02:10.706Z,25.38
2023-04-17T06:04:39.116Z,24.35
2023-04-17T06:07:08.221Z,26.27
2023-04-17T06:09:38.567Z,26.73
2023-04-17T06:12:06.502Z,25.60
2023-04-17T06:14:42.850Z,26.02
2023-04-17T06:17:12.308Z,26.23
2023-04-17T06:19:40.308Z,25.00
2023-04-17T06:22:08.201Z,24.25
2023-04-17T06:24:36.838Z,25.67
2023-04-17T06:27:05.841Z,24.70
2023-04-17T06:29:33.437Z,23.80
2023-04-17T06:32:01.353Z,23.80
2023-04-17T06:34:29.157Z,24.13
2023-04-17T06:36:57.500Z,24.55
2023-04-17T06:39:25.338Z,23.23
2023-04-17T06:41:53.063Z,23.15
2023-04-17T06:44:28.792Z,23.23
2023-04-17T06:46:56.416Z,21.80
2023-04-17T06:49:24.799Z,24.20
2023-04-17T06:51:52.476Z,22.13
2023-04-17T06:54:20.184Z,22.63
2023-04-17T06:56:48.232Z,23.75
2023-04-17T06:59:15.915Z,23.88
2023-04-17T07:01:45.412Z,21.35
2023-04-17T07:04:13.202Z,20.90
2023-04-17T07:06:41.210Z,22.58
2023-04-17T07:09:08.975Z,21.75
2023-04-17T07:11:36.680Z,20.75
2023-04-17T07:14:04.274Z,20.52
2023-04-17T07:16:31.965Z,21.02
2023-04-17T07:19:00.924Z,20.85
2023-04-17T07:21:28.759Z,19.67
2023-04-17T07:23:56.323Z,19.58
2023-04-17T07:26:24.030Z,19.55
2023-04-17T07:28:51.723Z,19.73
2023-04-17T07:31:19.400Z,20.35
2023-04-17T07:33:46.984Z,18.20
2023-04-17T07:36:15.969Z,20.45
2023-04-17T07:38:43.580Z,19.63
2023-04-17T07:41:12.276Z,19.17
2023-04-17T07:43:39.914Z,18.35
2023-04-17T07:46:07.709Z,18.23
2023-04-17T07:48:35.503Z,19.52
2023-04-17T07:51:03.121Z,18.33
2023-04-17T07:53:32.113Z,18.65
2023-04-17T07:56:00.364Z,19.88
2023-04-17T07:58:28.229Z,18.17
2023-04-17T08:00:57.510Z,18.92
2023-04-17T08:03:25.740Z,18.48
2023-04-17T08:05:54.123Z,17.35
2023-04-17T08:08:23.582Z,18.42
2023-04-17T08:10:52.666Z,18.05
2023-04-17T08:13:20.542Z,16.85
2023-04-17T08:15:48.270Z,18.38
2023-04-17T08:18:15.956Z,15.95
2023-04-17T08:20:43.884Z,16.38
2023-04-17T08:23:11.497Z,16.23
2023-04-17T08:25:39.105Z,14.38
2023-04-17T08:28:08.048Z,15.25
2023-04-17T08:30:35.934Z,15.48
2023-04-17T08:33:03.685Z,14.60
2023-04-17T08:35:31.480Z,13.18
2023-04-17T08:38:00.082Z,13.05
2023-04-17T08:40:27.904Z,12.93
2023-04-17T08:42:55.654Z,12.50
2023-04-17T08:45:25.229Z,12.48
2023-04-17T08:47:53.104Z,13.23
2023-04-17T08:50:22.102Z,12.70
2023-04-17T08:52:52.499Z,13.48
2023-04-17T08:55:21.381Z,12.85
2023-04-17T08:57:56.551Z,12.38
2023-04-17T09:00:29.837Z,12.80
2023-04-17T09:02:59.684Z,11.52
2023-04-17T09:05:30.445Z,11.27
2023-04-17T09:08:10.176Z,11.68
2023-04-17T09:10:40.023Z,10.95
2023-04-17T09:13:09.087Z,10.25
2023-04-17T09:15:38.259Z,10.90
2023-04-17T09:18:05.933Z,10.25
2023-04-17T09:20:33.734Z,9.80
2023-04-17T09:23:03.059Z,10.75
2023-04-17T09:25:31.022Z,11.18
2023-04-17T09:28:11.469Z,10.60
2023-04-17T09:30:41.429Z,8.77
2023-04-17T09:33:10.659Z,9.07
2023-04-17T09:35:40.197Z,9.27
2023-04-17T09:38:08.265Z,8.07
2023-04-17T09:40:40.715Z,9.48
2023-04-17T09:43:10.394Z,8.15
2023-04-17T09:45:44.576Z,9.23
2023-04-17T09:48:13.912Z,9.90
2023-04-17T09:50:41.821Z,9.18
2023-04-17T09:53:09.722Z,8.68
2023-04-17T09:55:38.026Z,8.32
2023-04-17T09:58:07.912Z,7.78
2023-04-17T10:00:37.751Z,8.30
2023-04-17T10:03:08.410Z,8.00
2023-04-17T10:05:36.517Z,7.88
2023-04-17T10:08:04.391Z,7.63
2023-04-17T10:10:34.109Z,7.80
2023-04-17T10:13:04.226Z,8.00
2023-04-17T10:15:33.792Z,7.72
2023-04-17T10:18:21.069Z,8.50
2023-04-17T10:20:49.982Z,8.63
2023-04-17T10:23:29.951Z,8.32
2023-04-17T10:26:36.417Z,7.93
2023-04-17T10:29:04.048Z,7.35
2023-04-17T10:32:28.514Z,7.25
2023-04-17T10:34:58.938Z,5.95
2023-04-17T10:38:03.452Z,6.47
2023-04-17T10:40:31.985Z,7.45
2023-04-17T10:43:04.573Z,6.32
2023-04-17T10:45:58.822Z,6.28
2023-04-17T10:48:28.217Z,6.15
2023-04-17T10:50:57.646Z,7.45
2023-04-17T10:53:38.717Z,8.05
2023-04-17T10:56:06.482Z,8.27
2023-04-17T10:58:36.615Z,8.77
2023-04-17T11:01:10.579Z,9.02
2023-04-17T11:03:39.013Z,9.30
2023-04-17T11:06:08.766Z,8.70
2023-04-17T11:08:36.372Z,8.50
2023-04-17T11:11:03.919Z,9.38
2023-04-17T11:13:35.616Z,9.82
2023-04-17T11:16:04.761Z,9.73
2023-04-17T11:18:32.524Z,10.30
2023-04-17T11:21:00.144Z,8.82
2023-04-17T11:23:34.501Z,8.07
2023-04-17T11:26:02.174Z,7.80
2023-04-17T11:28:29.924Z,8.23
2023-04-17T11:30:57.622Z,7.10
2023-04-17T11:33:25.931Z,7.18
2023-04-17T11:35:55.678Z,6.85
2023-04-17T11:38:24.434Z,6.63
2023-04-17T11:40:55.314Z,7.22
2023-04-17T11:43:24.406Z,6.60
2023-04-17T11:45:53.188Z,6.50
2023-04-17T11:48:23.243Z,6.65
2023-04-17T11:50:51.113Z,6.35
2023-04-17T11:53:18.870Z,5.45
2023-04-17T11:55:47.352Z,5.53
2023-04-17T11:58:16.821Z,5.78
2023-04-17T12:00:44.687Z,5.25
2023-04-17T12:03:34.425Z,6.13
2023-04-17T12:06:04.916Z,5.93
2023-04-17T12:08:41.766Z,4.90
2023-04-17T12:11:18.656Z,5.55
2023-04-17T12:13:48.151Z,5.68
2023-04-17T12:16:15.928Z,5.88
2023-04-17T12:18:43.724Z,5.55
2023-04-17T12:21:11.353Z,5.90
2023-04-17T12:23:38.982Z,6.25
2023-04-17T12:26:06.821Z,7.05
2023-04-17T12:28:34.814Z,7.13
2023-04-17T12:31:03.937Z,6.40
2023-04-17T12:33:31.780Z,7.72
2023-04-17T12:36:00.338Z,6.95
2023-04-17T12:38:28.045Z,5.93
2023-04-17T12:40:55.779Z,6.20
2023-04-17T12:43:23.708Z,6.68
2023-04-17T12:45:51.546Z,6.15
2023-04-17T12:48:20.705Z,6.35
2023-04-17T12:50:48.281Z,6.72
2023-04-17T12:53:16.306Z,6.60
2023-04-17T12:55:44.628Z,6.72
2023-04-17T12:58:13.476Z,6.30
2023-04-17T13:00:43.373Z,6.47
2023-04-17T13:03:11.922Z,6.47
2023-04-17T13:05:41.243Z,6.72
2023-04-17T13:08:14.786Z,6.72
2023-04-17T13:10:42.551Z,6.50
2023-04-17T13:13:10.416Z,6.90
2023-04-17T13:15:38.069Z,6.95
2023-04-17T13:18:05.905Z,7.15
2023-04-17T13:20:33.590Z,6.70
2023-04-17T13:23:02.653Z,5.95
2023-04-17T13:25:30.491Z,6.00
2023-04-17T13:27:58.613Z,6.40
2023-04-17T13:30:26.613Z,6.25
2023-04-17T13:32:54.199Z,6.50
2023-04-17T13:35:21.801Z,6.80
2023-04-17T13:37:49.523Z,6.47
2023-04-17T13:40:18.510Z,6.30
2023-04-17T13:42:46.281Z,6.50
2023-04-17T13:45:13.945Z,6.30
2023-04-17T13:47:41.578Z,5.95
2023-04-17T13:50:10.734Z,5.32
2023-04-17T13:52:38.371Z,5.60
2023-04-17T13:55:11.179Z,5.70
2023-04-17T13:57:40.277Z,5.07
2023-04-17T14:00:09.292Z,5.45
2023-04-17T14:02:37.317Z,5.07
2023-04-17T14:05:05.904Z,5.03
2023-04-17T14:07:33.723Z,5.07
2023-04-17T14:10:01.372Z,4.70
2023-04-17T14:12:28.949Z,5.30
2023-04-17T14:14:58.313Z,4.70
2023-04-17T14:17:26.275Z,5.15
2023-04-17T14:19:53.965Z,4.50
2023-04-17T14:22:21.509Z,4.68
2023-04-17T14:24:49.021Z,4.75
2023-04-17T14:27:17.161Z,5.22
2023-04-17T14:29:44.709Z,4.82
2023-04-17T14:32:13.600Z,4.30
2023-04-17T14:34:41.211Z,6.38
2023-04-17T14:37:08.875Z,5.32
2023-04-17T14:39:36.463Z,4.97
2023-04-17T14:42:04.249Z,5.53
2023-04-17T14:44:31.846Z,5.43
2023-04-17T14:46:59.491Z,5.07
2023-04-17T14:49:29.891Z,5.90
2023-04-17T14:51:57.577Z,5.70
2023-04-17T14:54:25.353Z,5.50
2023-04-17T14:56:53.082Z,6.10
2023-04-17T14:59:20.755Z,5.80
2023-04-17T15:01:48.480Z,5.30
2023-04-17T15:04:16.472Z,6.00
2023-04-17T15:06:45.668Z,6.45
2023-04-17T15:09:13.543Z,5.78
2023-04-17T15:11:41.218Z,5.82
2023-04-17T15:14:08.731Z,5.78
2023-04-17T15:16:36.465Z,6.05
2023-04-17T15:19:04.208Z,5.80
2023-04-17T15:21:32.144Z,6.07
2023-04-17T15:24:01.133Z,6.13
2023-04-17T15:26:28.768Z,6.47
2023-04-17T15:28:56.367Z,5.82
2023-04-17T15:31:24.173Z,6.82
2023-04-17T15:33:51.755Z,6.05
2023-04-17T15:36:19.364Z,7.00
2023-04-17T15:38:46.911Z,6.57
2023-04-17T15:41:15.869Z,6.53
2023-04-17T15:43:43.552Z,5.93
2023-04-17T15:46:11.308Z,5.75
2023-04-17T15:48:38.990Z,6.57
2023-04-17T15:51:07.046Z,6.65
2023-04-17T15:53:34.751Z,6.65
2023-04-17T15:56:02.526Z,6.82
2023-04-17T15:58:31.419Z,6.93
2023-04-17T16:00:59.094Z,6.13
2023-04-17T16:03:26.734Z,6.40
2023-04-17T16:05:54.900Z,6.28
2023-04-17T16:08:24.835Z,7.32
2023-04-17T16:10:52.903Z,6.20
2023-04-17T16:13:20.972Z,5.75
2023-04-17T16:15:50.411Z,6.35
2023-04-17T16:18:18.030Z,5.80
2023-04-17T16:20:46.340Z,6.47
2023-04-17T16:23:13.979Z,6.35
2023-04-17T16:25:41.644Z,5.95
2023-04-17T16:28:09.299Z,5.88
2023-04-17T16:30:37.019Z,7.82
2023-04-17T16:33:06.034Z,6.50
2023-04-17T16:35:33.649Z,6.25
2023-04-17T16:38:02.060Z,6.40
2023-04-17T16:40:30.934Z,6.43
2023-04-17T16:42:58.819Z,7.25
2023-04-17T16:45:26.404Z,6.18
2023-04-17T16:47:54.047Z,7.38
2023-04-17T16:50:25.031Z,7.20
2023-04-17T16:52:53.323Z,6.70
2023-04-17T16:55:21.019Z,6.55
2023-04-17T16:57:48.605Z,8.05
2023-04-17T17:00:17.330Z,6.03
2023-04-17T17:02:45.358Z,5.97
2023-04-17T17:05:13.077Z,6.70
2023-04-17T17:07:41.972Z,7.10
2023-04-17T17:10:10.643Z,6.70
2023-04-17T17:12:38.306Z,7.55
2023-04-17T17:15:07.440Z,6.80
2023-04-17T17:17:35.038Z,6.35
2023-04-17T17:20:02.830Z,6.95
2023-04-17T17:22:30.553Z,6.93
2023-04-17T17:24:59.499Z,7.05
2023-04-17T17:27:27.175Z,7.20
2023-04-17T17:29:55.420Z,8.27
2023-04-17T17:32:24.257Z,6.90
2023-04-17T17:34:52.513Z,6.75
2023-04-17T17:37:21.655Z,7.45
2023-04-17T17:39:49.587Z,8.27
2023-04-17T17:42:18.547Z,8.15
2023-04-17T17:44:46.181Z,7.97
2023-04-17T17:47:13.867Z,7.88
2023-04-17T17:49:41.431Z,7.90
2023-04-17T17:52:09.896Z,8.15
2023-04-17T17:54:37.850Z,7.57
2023-04-17T17:57:05.868Z,7.22
2023-04-17T17:59:35.120Z,7.15
2023-04-17T18:02:02.820Z,8.82
2023-04-17T18:04:30.821Z,8.27
2023-04-17T18:06:58.425Z,7.85
2023-04-17T18:09:26.097Z,7.78
2023-04-17T18:11:53.862Z,7.40
2023-04-17T18:14:21.456Z,8.32
2023-04-17T18:16:50.555Z,7.88
2023-04-17T18:19:18.283Z,8.43
2023-04-17T18:21:47.708Z,7.70
2023-04-17T18:24:15.746Z,8.45
2023-04-17T18:26:43.404Z,7.05
2023-04-17T18:29:11.011Z,7.10
2023-04-17T18:31:38.738Z,6.85
2023-04-17T18:34:07.897Z,6.53
2023-04-17T18:36:35.984Z,6.60
2023-04-17T18:39:04.390Z,6.65
2023-04-17T18:41:32.236Z,5.97
2023-04-17T18:44:06.287Z,6.32
2023-04-17T18:46:33.952Z,6.90
2023-04-17T18:49:01.600Z,6.72
2023-04-17T18:51:30.768Z,6.85
2023-04-17T18:53:58.484Z,6.65
2023-04-17T18:56:26.079Z,6.07
2023-04-17T18:58:53.730Z,5.82
2023-04-17T19:01:21.413Z,5.97
2023-04-17T19:03:49.008Z,7.15
2023-04-17T19:06:16.559Z,6.80
2023-04-17T19:08:45.479Z,6.85
2023-04-17T19:11:13.483Z,7.25
2023-04-17T19:13:42.314Z,7.72
2023-04-17T19:16:11.316Z,9.70
2023-04-17T19:18:39.116Z,7.07
2023-04-17T19:21:06.932Z,7.40
2023-04-17T19:23:34.566Z,7.35
2023-04-17T19:26:03.546Z,7.40
2023-04-17T19:28:31.698Z,7.55
2023-04-17T19:31:00.849Z,8.02
2023-04-17T19:33:28.472Z,7.20
2023-04-17T19:35:58.181Z,7.60
2023-04-17T19:38:27.734Z,7.28
2023-04-17T19:41:15.203Z,7.63
2023-04-17T19:43:43.013Z,8.68
2023-04-17T19:46:11.387Z,7.85
2023-04-17T19:48:39.035Z,7.25
2023-04-17T19:51:07.666Z,8.05
2023-04-17T19:53:38.869Z,7.82
2023-04-17T19:56:08.662Z,8.43
2023-04-17T19:58:38.543Z,8.07
2023-04-17T20:01:06.367Z,8.23
2023-04-17T20:03:35.359Z,8.07
2023-04-17T20:06:03.538Z,8.25
2023-04-17T20:08:31.300Z,7.93
2023-04-17T20:10:58.927Z,8.05
2023-04-17T20:13:27.887Z,8.70
2023-04-17T20:15:56.877Z,8.52
2023-04-17T20:18:24.944Z,8.93
2023-04-17T20:20:53.059Z,8.25
2023-04-17T20:23:20.698Z,9.13
2023-04-17T20:25:48.305Z,9.40
2023-04-17T20:28:15.912Z,8.82
2023-04-17T20:30:43.484Z,9.15
2023-04-17T20:33:12.416Z,9.32
2023-04-17T20:35:40.076Z,9.27
2023-04-17T20:38:07.667Z,9.35
2023-04-17T20:40:35.294Z,9.35
2023-04-17T20:43:02.908Z,9.07
2023-04-17T20:45:30.633Z,10.70
2023-04-17T20:48:00.654Z,9.98
2023-04-17T20:50:29.574Z,9.20
2023-04-17T20:52:57.231Z,9.15
2023-04-17T20:55:24.895Z,8.93
2023-04-17T20:57:52.565Z,10.65
2023-04-17T21:00:21.019Z,10.15
2023-04-17T21:02:51.415Z,9.73
2023-04-17T21:05:19.627Z,9.82
2023-04-17T21:08:00.981Z,10.00
2023-04-17T21:10:29.258Z,9.75
2023-04-17T21:12:56.826Z,9.18
2023-04-17T21:15:42.930Z,11.50
2023-04-17T21:18:10.550Z,9.60
2023-04-17T21:20:39.792Z,11.10
2023-04-17T21:23:08.882Z,10.00
2023-04-17T21:25:36.774Z,10.35
2023-04-17T21:28:04.598Z,10.48
2023-04-17T21:30:32.378Z,9.50
2023-04-17T21:33:00.052Z,9.60
2023-04-17T21:35:27.762Z,9.90
2023-04-17T21:37:55.541Z,9.52
2023-04-17T21:40:26.054Z,9.82
2023-04-17T21:42:54.111Z,9.70
2023-04-17T21:45:21.748Z,9.63
2023-04-17T21:47:49.529Z,9.50
2023-04-17T21:50:17.232Z,9.45
2023-04-17T21:52:45.164Z,9.77
2023-04-17T21:55:15.601Z,9.30
2023-04-17T21:57:47.229Z,9.10
2023-04-17T22:00:15.812Z,10.00
2023-04-17T22:02:43.556Z,9.02
2023-04-17T22:05:12.514Z,9.20
2023-04-17T22:07:53.741Z,9.82
2023-04-17T22:10:23.123Z,9.75
2023-04-17T22:12:52.108Z,11.27
2023-04-17T22:15:19.914Z,9.52
2023-04-17T22:17:47.617Z,10.77
2023-04-17T22:20:15.361Z,9.55
2023-04-17T22:22:43.026Z,9.98
2023-04-17T22:25:10.741Z,9.55
2023-04-17T22:27:38.294Z,10.23
2023-04-17T22:30:08.364Z,9.27
2023-04-17T22:32:36.143Z,9.80
2023-04-17T22:35:04.266Z,10.63
2023-04-17T22:37:31.919Z,10.13
2023-04-17T22:39:59.500Z,10.45
2023-04-17T22:42:27.229Z,10.55
2023-04-17T22:44:54.759Z,10.13
2023-04-17T22:47:23.880Z,10.20
2023-04-17T22:49:52.543Z,10.57
2023-04-17T22:52:20.529Z,11.35
2023-04-17T22:54:48.102Z,10.32
2023-04-17T22:57:15.655Z,9.38
2023-04-17T22:59:43.656Z,10.95
2023-04-17T23:02:11.326Z,11.15
2023-04-17T23:04:40.741Z,10.68
2023-04-17T23:07:08.403Z,10.40
2023-04-17T23:09:36.033Z,9.90
2023-04-17T23:12:03.684Z,10.00
2023-04-17T23:14:31.344Z,10.95
2023-04-17T23:16:59.054Z,10.60
2023-04-17T23:19:26.638Z,11.52
2023-04-17T23:21:56.002Z,10.80
2023-04-17T23:24:23.593Z,10.65
2023-04-17T23:26:51.131Z,12.13
2023-04-17T23:29:18.727Z,11.65
2023-04-17T23:31:46.416Z,11.52
2023-04-17T23:34:14.234Z,12.18
2023-04-17T23:36:41.929Z,12.13
2023-04-17T23:39:10.831Z,12.07
2023-04-17T23:41:42.098Z,12.60
2023-04-17T23:44:09.918Z,14.10
2023-04-17T23:46:37.759Z,13.43
2023-04-17T23:49:06.029Z,14.02
2023-04-17T23:51:33.679Z,13.18
2023-04-17T23:54:01.791Z,13.88
2023-04-17T23:56:31.125Z,13.60
2023-04-17T23:58:58.801Z,15.20
